ルレオ の空港の天気 - METARとTAF

Lulea / Kallax ( ESPA / LLA ) - スウェーデン ルレオ
飛行場実況気象(Metar)
観測時間06/29 03:50 CEST (06/29 01:50 UTC)
風向・風速静穏 0m/s
視程10km以上
天気現象
全天を覆う雲 雲底高度 2680m
気温11℃
湿度87%
気圧1012hPa
METARESPA 290150Z AUTO 00000KT 9999 OVC088/// 11/09 Q1012
過去の天気等 Google飛行場航空写真 Wunderground天気予報

過去48時間のMETAR

飛行場予報(TAF)
発表時間: 6/28 22:30 CEST (6/28 20:30 UTC)
予報対象時間: 28日23時 CEST ~ 29日1時 CEST
風向・風速南南東 2m/s
視程10km以上
なし
TAF ESPA 282030Z 2821/2823 16004KT CAVOK